createdAt,value
2023-05-14T00:00:31.034Z,8.07
2023-05-14T00:02:57.806Z,7.68
2023-05-14T00:05:24.643Z,8.50
2023-05-14T00:07:51.172Z,7.88
2023-05-14T00:10:19.219Z,8.05
2023-05-14T00:12:45.813Z,8.10
2023-05-14T00:15:12.858Z,7.88
2023-05-14T00:17:39.490Z,8.10
2023-05-14T00:22:34.865Z,8.15
2023-05-14T00:25:01.388Z,7.43
2023-05-14T00:27:27.933Z,7.43
2023-05-14T00:29:54.524Z,7.90
2023-05-14T00:32:21.204Z,7.55
2023-05-14T00:37:14.324Z,7.63
2023-05-14T00:39:41.082Z,7.68
2023-05-14T00:42:07.664Z,8.18
2023-05-14T00:44:34.258Z,8.45
2023-05-14T00:47:02.286Z,7.65
2023-05-14T00:49:29.365Z,8.20
2023-05-14T00:51:59.139Z,7.72
2023-05-14T00:54:26.179Z,7.57
2023-05-14T00:56:53.102Z,7.85
2023-05-14T00:59:19.689Z,8.45
2023-05-14T01:01:46.565Z,7.97
2023-05-14T01:04:13.460Z,7.82
2023-05-14T01:06:58.433Z,8.75
2023-05-14T01:09:50.486Z,9.18
2023-05-14T01:12:39.640Z,7.97
2023-05-14T01:15:19.509Z,8.90
2023-05-14T01:17:52.107Z,8.30
2023-05-14T01:20:18.927Z,9.00
2023-05-14T01:25:12.253Z,8.48
2023-05-14T01:27:48.981Z,9.02
2023-05-14T01:30:36.195Z,8.70
2023-05-14T01:33:06.763Z,7.88
2023-05-14T01:35:33.871Z,8.05
2023-05-14T01:38:03.551Z,7.75
2023-05-14T01:40:32.004Z,8.35
2023-05-14T01:42:59.245Z,8.63
2023-05-14T01:45:26.348Z,7.80
2023-05-14T01:47:54.359Z,7.95
2023-05-14T01:50:21.267Z,7.63
2023-05-14T01:52:48.564Z,8.82
2023-05-14T01:55:15.971Z,7.70
2023-05-14T01:57:42.488Z,8.88
2023-05-14T02:00:09.502Z,8.02
2023-05-14T02:02:36.099Z,8.18
2023-05-14T02:05:03.903Z,7.03
2023-05-14T02:07:32.247Z,8.30
2023-05-14T02:09:58.812Z,7.30
2023-05-14T02:12:26.447Z,7.75
2023-05-14T02:14:52.990Z,7.97
2023-05-14T02:17:20.606Z,8.02
2023-05-14T02:19:47.353Z,7.82
2023-05-14T02:22:15.104Z,7.88
2023-05-14T02:24:41.693Z,7.47
2023-05-14T02:27:08.266Z,7.60
2023-05-14T02:29:34.838Z,7.82
2023-05-14T02:32:01.348Z,8.10
2023-05-14T02:34:27.856Z,9.50
2023-05-14T02:36:54.377Z,8.05
2023-05-14T02:39:20.952Z,8.20
2023-05-14T02:41:47.546Z,7.47
2023-05-14T02:44:14.148Z,8.18
2023-05-14T02:46:40.798Z,8.18
2023-05-14T02:49:07.391Z,7.32
2023-05-14T02:51:33.995Z,7.20
2023-05-14T02:54:00.661Z,7.72
2023-05-14T02:56:27.190Z,7.78
2023-05-14T02:58:53.696Z,7.70
2023-05-14T03:03:47.665Z,7.75
2023-05-14T03:06:14.671Z,8.02
2023-05-14T03:08:41.754Z,7.88
2023-05-14T03:11:08.304Z,8.07
2023-05-14T03:13:34.845Z,8.25
2023-05-14T03:16:01.418Z,7.70
2023-05-14T03:18:30.721Z,8.27
2023-05-14T03:20:57.346Z,8.00
2023-05-14T03:23:23.924Z,7.88
2023-05-14T03:25:51.045Z,7.20
2023-05-14T03:28:17.572Z,7.40
2023-05-14T03:30:44.167Z,7.53
2023-05-14T03:33:13.867Z,8.32
2023-05-14T03:35:40.392Z,7.28
2023-05-14T03:38:07.627Z,7.82
2023-05-14T03:40:34.204Z,7.65
2023-05-14T03:43:00.915Z,7.47
2023-05-14T03:45:28.810Z,7.70
2023-05-14T03:47:56.771Z,8.40
2023-05-14T03:50:25.769Z,8.10
2023-05-14T03:52:52.848Z,7.70
2023-05-14T03:55:22.469Z,8.23
2023-05-14T03:57:49.338Z,7.70
2023-05-14T04:02:42.872Z,7.80
2023-05-14T04:05:11.944Z,7.50
2023-05-14T04:07:38.473Z,8.85
2023-05-14T04:10:05.823Z,8.98
2023-05-14T04:12:32.322Z,7.95
2023-05-14T04:14:58.956Z,8.30
2023-05-14T04:17:26.043Z,7.70
2023-05-14T04:19:52.701Z,7.75
2023-05-14T04:22:19.239Z,8.00
2023-05-14T04:24:46.087Z,9.27
2023-05-14T04:27:19.694Z,8.95
2023-05-14T04:32:12.830Z,8.57
2023-05-14T04:34:40.164Z,8.43
2023-05-14T04:37:07.161Z,9.23
2023-05-14T04:39:33.892Z,8.52
2023-05-14T04:42:00.494Z,8.77
2023-05-14T04:44:27.270Z,8.55
2023-05-14T04:46:53.778Z,10.15
2023-05-14T04:49:21.141Z,9.57
2023-05-14T04:51:48.381Z,9.10
2023-05-14T04:54:14.993Z,9.50
2023-05-14T04:56:41.675Z,8.60
2023-05-14T04:59:08.245Z,9.00
2023-05-14T05:01:34.871Z,8.68
2023-05-14T05:04:01.567Z,9.18
2023-05-14T05:06:28.175Z,9.38
2023-05-14T05:08:55.319Z,9.70
2023-05-14T05:11:21.872Z,10.05
2023-05-14T05:13:48.426Z,10.23
2023-05-14T05:16:15.018Z,10.20
2023-05-14T05:18:41.619Z,10.73
2023-05-14T05:21:08.146Z,10.23
2023-05-14T05:23:34.636Z,9.98
2023-05-14T05:26:01.285Z,10.10
2023-05-14T05:28:27.818Z,11.05
2023-05-14T05:30:54.382Z,11.32
2023-05-14T05:33:21.065Z,9.68
2023-05-14T05:35:48.393Z,10.82
2023-05-14T05:38:15.819Z,10.30
2023-05-14T05:40:42.459Z,9.30
2023-05-14T05:43:09.036Z,9.57
2023-05-14T05:45:35.535Z,8.70
2023-05-14T05:48:02.185Z,10.98
2023-05-14T05:52:55.145Z,9.25
2023-05-14T05:55:21.792Z,8.77
2023-05-14T05:57:48.290Z,9.75
2023-05-14T06:00:15.396Z,9.20
2023-05-14T06:02:42.084Z,9.52
2023-05-14T06:07:38.671Z,9.77
2023-05-14T06:10:06.560Z,9.73
2023-05-14T06:12:33.115Z,9.70
2023-05-14T06:15:01.559Z,10.25
2023-05-14T06:17:28.129Z,11.60
2023-05-14T06:19:54.648Z,10.13
2023-05-14T06:22:21.196Z,10.27
2023-05-14T06:24:48.124Z,12.30
2023-05-14T06:27:14.713Z,12.02
2023-05-14T06:32:08.183Z,11.65
2023-05-14T06:34:34.817Z,10.88
2023-05-14T06:39:29.627Z,10.07
2023-05-14T06:41:56.137Z,10.63
2023-05-14T06:44:22.709Z,9.32
2023-05-14T06:49:15.716Z,10.20
2023-05-14T06:54:08.837Z,10.48
2023-05-14T06:59:01.838Z,9.88
2023-05-14T07:03:54.988Z,10.07
2023-05-14T07:08:48.264Z,11.45
2023-05-14T07:11:15.396Z,12.02
2023-05-14T07:13:42.984Z,11.82
2023-05-14T07:16:12.518Z,12.50
2023-05-14T07:18:39.281Z,11.57
2023-05-14T07:21:06.851Z,12.45
2023-05-14T07:23:36.527Z,11.57
2023-05-14T07:26:04.026Z,13.68
2023-05-14T07:28:30.733Z,12.95
2023-05-14T07:30:57.718Z,13.43
2023-05-14T07:37:47.996Z,14.57
2023-05-14T07:40:14.844Z,12.70
2023-05-14T07:42:41.514Z,15.15
2023-05-14T07:47:37.949Z,15.45
2023-05-14T07:50:06.246Z,15.18
2023-05-14T07:52:33.097Z,13.75
2023-05-14T07:55:01.577Z,13.38
2023-05-14T07:57:28.210Z,13.85
2023-05-14T07:59:54.864Z,14.68
2023-05-14T08:02:21.920Z,14.00
2023-05-14T08:04:48.688Z,14.88
2023-05-14T08:07:15.559Z,13.55
2023-05-14T08:09:43.322Z,12.60
2023-05-14T08:12:13.107Z,12.85
2023-05-14T08:14:39.665Z,13.52
2023-05-14T08:17:06.321Z,12.70
2023-05-14T08:19:33.239Z,13.02
2023-05-14T08:21:59.768Z,12.10
2023-05-14T08:29:19.704Z,10.40
2023-05-14T08:34:12.730Z,10.13
2023-05-14T08:36:39.461Z,9.52
2023-05-14T08:39:07.862Z,9.30
2023-05-14T08:41:34.913Z,8.75
2023-05-14T08:44:18.375Z,8.63
2023-05-14T08:46:45.571Z,8.25
2023-05-14T08:49:19.275Z,7.05
2023-05-14T08:51:49.291Z,6.60
2023-05-14T08:54:18.008Z,7.50
2023-05-14T08:56:46.621Z,7.18
2023-05-14T08:59:13.400Z,6.70
2023-05-14T09:01:46.736Z,6.93
2023-05-14T09:04:19.985Z,7.47
2023-05-14T09:06:49.656Z,5.95
2023-05-14T09:09:16.680Z,6.18
2023-05-14T09:11:46.096Z,5.95
2023-05-14T09:14:12.838Z,5.70
2023-05-14T09:16:42.738Z,5.45
2023-05-14T09:19:09.690Z,6.05
2023-05-14T09:21:38.349Z,5.32
2023-05-14T09:24:05.252Z,5.85
2023-05-14T09:26:33.136Z,6.07
2023-05-14T09:29:04.023Z,6.03
2023-05-14T09:31:32.243Z,6.00
2023-05-14T09:33:59.837Z,5.65
2023-05-14T09:36:29.565Z,5.55
2023-05-14T09:38:59.233Z,5.60
2023-05-14T09:41:25.893Z,4.60
2023-05-14T09:43:53.486Z,4.30
2023-05-14T09:46:20.076Z,4.15
2023-05-14T09:48:46.688Z,4.07
2023-05-14T09:51:13.994Z,3.53
2023-05-14T09:53:41.758Z,4.43
2023-05-14T09:56:08.967Z,4.20
2023-05-14T09:58:35.758Z,4.63
2023-05-14T10:01:02.915Z,3.90
2023-05-14T10:03:30.718Z,3.97
2023-05-14T10:06:05.188Z,3.80
2023-05-14T10:08:34.955Z,3.63
2023-05-14T10:11:06.131Z,3.50
2023-05-14T10:13:38.120Z,3.03
2023-05-14T10:16:29.361Z,3.10
2023-05-14T10:19:03.299Z,3.55
2023-05-14T10:21:33.258Z,3.42
2023-05-14T10:24:00.411Z,3.20
2023-05-14T10:26:28.082Z,3.15
2023-05-14T10:28:56.164Z,3.55
2023-05-14T10:31:47.699Z,3.50
2023-05-14T10:34:39.705Z,3.05
2023-05-14T10:37:26.296Z,3.50
2023-05-14T10:39:58.398Z,3.50
2023-05-14T10:42:33.345Z,3.47
2023-05-14T10:45:02.159Z,3.63
2023-05-14T10:47:29.809Z,3.70
2023-05-14T10:49:59.080Z,3.38
2023-05-14T10:52:26.631Z,3.47
2023-05-14T10:54:58.517Z,3.65
2023-05-14T10:57:32.582Z,3.40
2023-05-14T11:00:03.338Z,3.63
2023-05-14T11:02:41.448Z,3.60
2023-05-14T11:05:11.329Z,3.67
2023-05-14T11:07:40.130Z,3.72
2023-05-14T11:10:08.375Z,3.17
2023-05-14T11:12:36.625Z,3.80
2023-05-14T11:15:06.373Z,3.42
2023-05-14T11:17:35.049Z,3.53
2023-05-14T11:20:02.162Z,3.60
2023-05-14T11:22:28.753Z,3.55
2023-05-14T11:24:55.273Z,3.75
2023-05-14T11:27:23.194Z,3.97
2023-05-14T11:29:50.446Z,3.85
2023-05-14T11:32:17.935Z,3.90
2023-05-14T11:34:46.064Z,3.80
2023-05-14T11:37:14.926Z,4.13
2023-05-14T11:39:49.414Z,4.00
2023-05-14T11:42:18.772Z,4.03
2023-05-14T11:44:50.314Z,3.45
2023-05-14T11:47:18.476Z,4.00
2023-05-14T11:49:45.630Z,4.07
2023-05-14T11:52:15.415Z,3.95
2023-05-14T11:54:45.741Z,4.00
2023-05-14T11:57:14.642Z,4.40
2023-05-14T11:59:41.336Z,3.42
2023-05-14T12:02:12.700Z,4.20
2023-05-14T12:04:40.492Z,4.53
2023-05-14T12:07:12.450Z,4.60
2023-05-14T12:09:49.060Z,4.47
2023-05-14T12:12:18.950Z,4.32
2023-05-14T12:14:46.765Z,4.43
2023-05-14T12:17:23.478Z,4.45
2023-05-14T12:19:51.928Z,5.30
2023-05-14T12:22:20.991Z,5.50
2023-05-14T12:24:58.739Z,5.05
2023-05-14T12:27:26.804Z,4.75
2023-05-14T12:30:09.103Z,6.30
2023-05-14T12:32:46.730Z,5.20
2023-05-14T12:35:13.337Z,5.70
2023-05-14T12:37:40.113Z,5.80
2023-05-14T12:40:11.668Z,5.60
2023-05-14T12:42:38.229Z,5.88
2023-05-14T12:45:08.089Z,6.05
2023-05-14T12:47:35.171Z,6.55
2023-05-14T12:50:02.137Z,7.32
2023-05-14T12:52:37.492Z,6.38
2023-05-14T12:55:09.740Z,6.13
2023-05-14T12:57:37.249Z,6.05
2023-05-14T13:00:07.992Z,6.68
2023-05-14T13:02:42.368Z,6.40
2023-05-14T13:05:10.780Z,6.90
2023-05-14T13:07:37.657Z,6.00
2023-05-14T13:10:05.947Z,6.93
2023-05-14T13:12:32.834Z,6.93
2023-05-14T13:15:00.235Z,8.07
2023-05-14T13:17:26.912Z,7.43
2023-05-14T13:19:53.598Z,7.95
2023-05-14T13:22:23.131Z,7.43
2023-05-14T13:24:49.641Z,8.27
2023-05-14T13:27:16.268Z,8.23
2023-05-14T13:29:42.827Z,6.82
2023-05-14T13:32:09.369Z,7.07
2023-05-14T13:34:36.394Z,7.70
2023-05-14T13:37:03.003Z,7.85
2023-05-14T13:39:29.552Z,8.00
2023-05-14T13:41:56.964Z,6.95
2023-05-14T13:44:23.783Z,8.07
2023-05-14T13:46:50.571Z,7.82
2023-05-14T13:49:17.331Z,7.72
2023-05-14T13:51:44.170Z,8.10
2023-05-14T13:54:10.761Z,7.70
2023-05-14T13:56:37.258Z,6.93
2023-05-14T13:59:04.157Z,6.82
2023-05-14T14:01:31.124Z,7.25
2023-05-14T14:03:57.768Z,6.70
2023-05-14T14:06:26.254Z,6.70
2023-05-14T14:08:53.246Z,7.13
2023-05-14T14:11:19.828Z,6.95
2023-05-14T14:13:46.840Z,7.03
2023-05-14T14:16:13.560Z,6.97
2023-05-14T14:18:40.230Z,6.90
2023-05-14T14:21:06.852Z,6.28
2023-05-14T14:23:33.420Z,6.53
2023-05-14T14:26:00.622Z,6.80
2023-05-14T14:28:27.169Z,6.10
2023-05-14T14:30:53.736Z,5.93
2023-05-14T14:33:20.272Z,6.53
2023-05-14T14:35:46.825Z,6.07
2023-05-14T14:38:13.842Z,5.72
2023-05-14T14:40:40.368Z,5.45
2023-05-14T14:43:06.895Z,5.25
2023-05-14T14:45:33.457Z,5.30
2023-05-14T14:48:41.386Z,4.47
2023-05-14T14:51:09.369Z,3.92
2023-05-14T14:53:37.208Z,3.30
2023-05-14T14:56:04.084Z,3.80
2023-05-14T14:58:31.263Z,3.20
2023-05-14T15:00:58.430Z,3.30
2023-05-14T15:03:25.439Z,3.60
2023-05-14T15:05:53.668Z,3.90
2023-05-14T15:08:21.002Z,3.78
2023-05-14T15:10:47.605Z,3.20
2023-05-14T15:13:14.181Z,3.30
2023-05-14T15:15:40.754Z,3.20
2023-05-14T15:18:07.359Z,2.40
2023-05-14T15:20:33.994Z,2.67
2023-05-14T15:23:00.598Z,2.72
2023-05-14T15:25:27.441Z,3.00
2023-05-14T15:27:53.981Z,2.72
2023-05-14T15:30:20.783Z,2.83
2023-05-14T15:32:47.485Z,2.83
2023-05-14T15:35:14.139Z,3.33
2023-05-14T15:37:42.756Z,2.70
2023-05-14T15:40:12.367Z,2.83
2023-05-14T15:42:43.785Z,2.60
2023-05-14T15:45:12.629Z,2.63
2023-05-14T15:47:39.557Z,2.92
2023-05-14T15:50:06.948Z,2.78
2023-05-14T15:52:34.389Z,2.70
2023-05-14T15:55:00.968Z,2.70
2023-05-14T15:57:27.749Z,2.63
2023-05-14T15:59:54.498Z,2.80
2023-05-14T16:02:21.005Z,2.60
2023-05-14T16:04:49.559Z,2.75
2023-05-14T16:07:16.351Z,3.05
2023-05-14T16:09:42.876Z,2.95
2023-05-14T16:12:09.443Z,3.00
2023-05-14T16:14:36.303Z,2.72
2023-05-14T16:17:02.985Z,2.50
2023-05-14T16:19:29.526Z,3.10
2023-05-14T16:21:56.114Z,2.63
2023-05-14T16:24:22.658Z,2.60
2023-05-14T16:26:49.363Z,2.65
2023-05-14T16:29:16.212Z,2.90
2023-05-14T16:31:43.442Z,3.03
2023-05-14T16:34:09.976Z,2.72
2023-05-14T16:36:36.591Z,2.63
2023-05-14T16:41:32.985Z,2.75
2023-05-14T16:44:00.147Z,2.30
2023-05-14T16:46:28.364Z,2.30
2023-05-14T16:48:55.455Z,2.60
2023-05-14T16:51:22.012Z,2.40
2023-05-14T16:53:48.530Z,2.65
2023-05-14T16:56:15.058Z,2.83
2023-05-14T16:58:41.657Z,2.40
2023-05-14T17:01:09.874Z,2.33
2023-05-14T17:03:37.003Z,2.28
2023-05-14T17:06:04.742Z,2.25
2023-05-14T17:08:33.702Z,2.25
2023-05-14T17:11:00.348Z,2.30
2023-05-14T17:13:26.901Z,2.20
2023-05-14T17:15:53.554Z,2.45
2023-05-14T17:18:20.149Z,2.45
2023-05-14T17:20:46.720Z,2.00
2023-05-14T17:23:13.602Z,2.17
2023-05-14T17:25:40.368Z,4.65
2023-05-14T17:28:06.935Z,2.25
2023-05-14T17:30:33.501Z,2.00
2023-05-14T17:33:00.129Z,1.92
2023-05-14T17:35:26.906Z,2.38
2023-05-14T17:37:53.653Z,6.22
2023-05-14T17:40:20.191Z,2.80
2023-05-14T17:42:46.805Z,2.08
2023-05-14T17:45:14.608Z,2.00
2023-05-14T17:47:41.353Z,2.05
2023-05-14T17:50:08.387Z,1.88
2023-05-14T17:52:34.940Z,2.03
2023-05-14T17:55:01.536Z,2.00
2023-05-14T17:57:28.216Z,2.00
2023-05-14T17:59:54.763Z,2.03
2023-05-14T18:02:21.423Z,2.03
2023-05-14T18:04:47.914Z,1.85
2023-05-14T18:07:14.792Z,2.10
2023-05-14T18:09:41.347Z,2.20
2023-05-14T18:12:08.589Z,1.80
2023-05-14T18:14:35.520Z,2.10
2023-05-14T18:17:02.201Z,2.10
2023-05-14T18:19:31.175Z,2.00
2023-05-14T18:21:59.398Z,1.70
2023-05-14T18:24:26.349Z,1.90
2023-05-14T18:26:53.019Z,2.03
2023-05-14T18:29:19.545Z,2.25
2023-05-14T18:31:46.191Z,2.05
2023-05-14T18:34:16.671Z,2.40
2023-05-14T18:36:43.404Z,2.13
2023-05-14T18:39:10.044Z,2.05
2023-05-14T18:41:36.559Z,2.58
2023-05-14T18:44:03.148Z,2.17
2023-05-14T18:46:29.925Z,2.00
2023-05-14T18:48:56.652Z,2.15
2023-05-14T18:51:23.232Z,2.20
2023-05-14T18:53:49.754Z,3.17
2023-05-14T18:56:19.235Z,2.85
2023-05-14T18:58:46.449Z,3.17
2023-05-14T19:01:13.007Z,3.00
2023-05-14T19:03:41.685Z,3.17
2023-05-14T19:06:08.411Z,3.50
2023-05-14T19:08:34.948Z,3.40
2023-05-14T19:11:01.923Z,3.53
2023-05-14T19:13:28.724Z,3.30
2023-05-14T19:15:55.628Z,3.63
2023-05-14T19:18:22.295Z,4.10
2023-05-14T19:20:48.837Z,3.45
2023-05-14T19:23:15.500Z,4.07
2023-05-14T19:25:42.010Z,3.55
2023-05-14T19:28:08.584Z,4.18
2023-05-14T19:30:35.123Z,3.72
2023-05-14T19:33:01.676Z,3.50
2023-05-14T19:35:28.182Z,4.55
2023-05-14T19:37:54.820Z,4.57
2023-05-14T19:40:21.400Z,3.65
2023-05-14T19:42:47.904Z,3.88
2023-05-14T19:45:14.419Z,3.95
2023-05-14T19:47:41.788Z,4.05
2023-05-14T19:50:08.861Z,4.18
2023-05-14T19:52:38.184Z,4.15
2023-05-14T19:55:05.070Z,2.30
2023-05-14T19:57:31.579Z,2.50
2023-05-14T19:59:58.255Z,2.15
2023-05-14T20:02:24.856Z,2.30
2023-05-14T20:04:51.738Z,2.42
2023-05-14T20:07:18.447Z,2.50
2023-05-14T20:09:45.997Z,2.13
2023-05-14T20:12:13.366Z,2.03
2023-05-14T20:14:41.135Z,2.25
2023-05-14T20:17:07.694Z,2.08
2023-05-14T20:19:34.924Z,2.42
2023-05-14T20:22:01.478Z,2.00
2023-05-14T20:24:28.708Z,2.30
2023-05-14T20:26:56.944Z,2.08
2023-05-14T20:29:23.595Z,2.30
2023-05-14T20:31:53.837Z,1.92
2023-05-14T20:34:20.435Z,2.17
2023-05-14T20:36:47.044Z,1.98
2023-05-14T20:39:14.325Z,2.17
2023-05-14T20:41:40.970Z,2.05
2023-05-14T20:44:07.872Z,1.98
2023-05-14T20:46:34.543Z,2.40
2023-05-14T20:49:04.582Z,2.25
2023-05-14T20:51:33.078Z,1.95
2023-05-14T20:53:59.765Z,2.30
2023-05-14T20:56:26.795Z,2.50
2023-05-14T20:58:53.330Z,2.38
2023-05-14T21:01:19.904Z,2.40
2023-05-14T21:03:46.757Z,2.00
2023-05-14T21:06:15.180Z,2.50
2023-05-14T21:08:41.769Z,2.20
2023-05-14T21:11:08.719Z,2.40
2023-05-14T21:13:35.231Z,2.38
2023-05-14T21:16:03.554Z,2.60
2023-05-14T21:18:32.932Z,2.30
2023-05-14T21:21:00.010Z,2.50
2023-05-14T21:23:26.640Z,2.28
2023-05-14T21:25:54.944Z,2.17
2023-05-14T21:28:22.671Z,2.42
2023-05-14T21:30:50.852Z,2.45
2023-05-14T21:33:18.171Z,2.50
2023-05-14T21:35:44.758Z,2.30
2023-05-14T21:38:11.845Z,2.55
2023-05-14T21:40:38.354Z,2.60
2023-05-14T21:43:04.870Z,2.38
2023-05-14T21:45:31.524Z,2.58
2023-05-14T21:47:58.259Z,2.50
2023-05-14T21:50:24.859Z,2.53
2023-05-14T21:52:51.477Z,2.45
2023-05-14T21:55:18.015Z,2.50
2023-05-14T21:57:44.605Z,2.30
2023-05-14T22:00:13.259Z,2.70
2023-05-14T22:02:39.954Z,2.78
2023-05-14T22:05:06.746Z,2.88
2023-05-14T22:07:33.382Z,2.67
2023-05-14T22:09:59.996Z,2.97
2023-05-14T22:12:26.901Z,2.75
2023-05-14T22:14:54.805Z,2.67
2023-05-14T22:17:21.981Z,2.63
2023-05-14T22:19:48.563Z,2.25
2023-05-14T22:22:15.103Z,2.55
2023-05-14T22:24:41.695Z,2.42
2023-05-14T22:27:08.236Z,2.88
2023-05-14T22:29:36.717Z,2.35
2023-05-14T22:32:07.600Z,2.50
2023-05-14T22:34:34.105Z,2.30
2023-05-14T22:37:00.624Z,2.60
2023-05-14T22:39:27.213Z,2.22
2023-05-14T22:41:55.304Z,2.63
2023-05-14T22:44:22.958Z,2.75
2023-05-14T22:46:50.210Z,2.80
2023-05-14T22:49:16.770Z,3.00
2023-05-14T22:51:43.306Z,2.70
2023-05-14T22:54:10.770Z,3.13
2023-05-14T22:56:37.935Z,3.17
2023-05-14T22:59:04.738Z,3.50
2023-05-14T23:01:31.783Z,3.63
2023-05-14T23:03:58.432Z,3.20
2023-05-14T23:06:25.346Z,4.07
2023-05-14T23:08:51.911Z,3.58
2023-05-14T23:11:18.412Z,3.72
2023-05-14T23:16:11.370Z,4.30
2023-05-14T23:21:04.735Z,4.20
2023-05-14T23:23:31.332Z,4.07
2023-05-14T23:25:57.960Z,4.05
2023-05-14T23:28:24.598Z,3.95
2023-05-14T23:33:17.651Z,4.18
2023-05-14T23:38:10.901Z,4.03
2023-05-14T23:40:37.503Z,4.60
2023-05-14T23:45:30.840Z,4.28
2023-05-14T23:47:58.805Z,4.63
2023-05-14T23:50:25.759Z,4.85
2023-05-14T23:52:53.219Z,4.80
2023-05-14T23:55:20.079Z,5.13
2023-05-14T23:57:47.415Z,5.55
